• Join FlightAware (Why Join?)
  • Login
  • US Flag 
03:58AM EST


 

Airport Tracker/Info


-or-


 

Live Flight TrackerFlight Track Log ✈ N102WY ✈ 04-Nov-2013 ✈ KCYS - KIWA

Flight Track Log - Related Links

Times and Time Zones

All times are in EST time to prevent confusion due to time zone crossing. See the N102WY flight status page for this flight to view local times or setup timezone preferences in your user account.

Time Position Orientation Groundspeed Altitude Reporting Facility
EST Latitude Longitude Course Direction KTS MPH feet Rate Location/Type
09:33AM 41.1433 -104.8608 211° Southwest 172 198 10,300  Level Denver Center
09:34AM 41.0856 -104.9069 211° Southwest 251 289 13,600 3,443 Climbing Denver Center
09:35AM 41.0231 -104.9533 209° Southwest 257 296 17,300 3,295 Climbing Denver Center
09:36AM 40.9597 -105.0000 209° Southwest 259 298 20,300 2,951 Climbing Denver Center
09:37AM 40.8964 -105.0497 211° Southwest 264 304 23,300 2,951 Climbing Denver Center
09:38AM 40.7207 -105.2407 211° Southwest  Level Estimated
09:38AM 40.8350 -105.0978 211° Southwest 259 298 26,300  Level Denver Center
09:39AM 40.7761 -105.1411 209° Southwest 247 284 28,900 2,410 Climbing Denver Center
09:40AM 40.7175 -105.1836 209° Southwest 242 278 31,200 1,770 Climbing Denver Center
09:41AM 40.6594 -105.2283 210° Southwest 241 277 32,500 1,082 Climbing Denver Center
09:42AM 40.5911 -105.2794 210° Southwest 268 308 33,400 934 Climbing Denver Center
09:43AM 40.5158 -105.3356 210° Southwest 299 344 34,400 1,131 Climbing Denver Center
09:44AM 40.4208 -105.4072 210° Southwest 325 374 35,700 1,131 Climbing Denver Center
09:45AM 40.3414 -105.4681 210° Southwest 330 380 36,700 984 Climbing Denver Center
09:46AM 40.2639 -105.5250 209° Southwest 325 374 37,700 639 Climbing Denver Center
09:47AM 40.1828 -105.5867 210° Southwest 337 388 38,000 148 Climbing Denver Center
09:48AM 40.0981 -105.6478 209° Southwest 348 400 38,000  Level Denver Center
09:49AM 40.0169 -105.7078 210° Southwest 339 390 38,000  Level Denver Center
09:50AM 39.9381 -105.7667 210° Southwest 329 379 38,000  Level Denver Center
09:51AM 39.8625 -105.8222 209° Southwest 317 365 38,000  Level Denver Center
09:52AM 39.7878 -105.8772 209° Southwest 311 358 38,000  Level Denver Center
09:53AM 39.7136 -105.9314 209° Southwest 308 354 38,000  Level Denver Center
09:54AM 39.6258 -105.9958 209° Southwest 304 350 38,000 393 Level Denver Center
09:55AM 39.5519 -106.0494 209° Southwest 305 351 38,800 934 Climbing Denver Center
09:56AM 39.4783 -106.1031 209° Southwest 305 351 39,900 585 Climbing Denver Center
09:57AM 39.4031 -106.1578 209° Southwest 309 356 40,000 49 Climbing Denver Center
09:58AM 39.3269 -106.2117 209° Southwest 307 353 40,000  Level Denver Center
09:59AM 39.2569 -106.2617 209° Southwest 301 346 40,000  Level Denver Center
10:00AM 39.1772 -106.3183 209° Southwest 295 339 40,000  Level Denver Center
10:01AM 39.1111 -106.3672 210° Southwest 288 331 40,000  Level Denver Center
10:02AM 39.0431 -106.4158 209° Southwest 290 334 40,000  Level Denver Center
10:03AM 38.9597 -106.4758 209° Southwest 303 349 40,000  Level Denver Center
10:04AM 38.8819 -106.5303 209° Southwest 308 354 40,000  Level Denver Center
10:05AM 38.8047 -106.5856 209° Southwest 312 359 40,000  Level Denver Center
10:06AM 38.7278 -106.6389 208° Southwest 313 360 40,000  Level Denver Center
10:07AM 38.6514 -106.6939 209° Southwest 313 360 40,000  Level Denver Center
10:08AM 38.5758 -106.7469 209° Southwest 309 356 40,000  Level Denver Center
10:09AM 38.5000 -106.7989 208° Southwest 309 356 40,000  Level Denver Center
10:10AM 38.4256 -106.8528 210° Southwest 306 352 40,000  Level Denver Center
10:11AM 38.3503 -106.9044 208° Southwest 306 352 40,000  Level Denver Center
10:12AM 38.2756 -106.9569 209° Southwest 306 352 40,000  Level Denver Center
10:13AM 38.2006 -107.0097 209° Southwest 306 352 40,000  Level Denver Center
10:14AM 38.1256 -107.0619 209° Southwest 307 353 40,000  Level Denver Center
10:15AM 38.0447 -107.1169 208° Southwest 306 352 40,000  Level Denver Center
10:16AM 37.9603 -107.1756 209° Southwest 308 354 40,000  Level Denver Center
10:17AM 37.8908 -107.2244 209° Southwest 306 352 40,000  Level Denver Center
10:18AM 37.8061 -107.2819 208° Southwest 309 356 40,000  Level Denver Center
10:19AM 37.7331 -107.3322 209° Southwest 311 358 40,000  Level Denver Center
10:20AM 37.6475 -107.3908 208° Southwest 312 359 40,000  Level Denver Center
10:22AM 37.5728 -107.4408 208° Southwest 316 364 40,000  Level Denver Center
10:23AM 37.4875 -107.5008 209° Southwest 315 362 40,000  Level Denver Center
10:24AM 37.4133 -107.5500 208° Southwest 314 361 40,000  Level Denver Center
10:25AM 37.3403 -107.6008 209° Southwest 312 359 40,000  Level Denver Center
10:26AM 37.2544 -107.6578 208° Southwest 311 358 40,000  Level Denver Center
10:27AM 37.1817 -107.7069 208° Southwest 311 358 40,000  Level Denver Center
10:28AM 37.0969 -107.7642 208° Southwest 310 357 40,000  Level Denver Center
10:29AM 37.0244 -107.8131 208° Southwest 310 357 40,000  Level Denver Center
10:30AM 36.9408 -107.8686 208° Southwest 306 352 40,000  Level Denver Center
10:31AM 36.8689 -107.9178 209° Southwest 307 353 40,000  Level Denver Center
10:32AM 36.7953 -107.9658 208° Southwest 310 357 40,000  Level Denver Center
10:33AM 36.7103 -108.0231 208° Southwest 311 358 40,000  Level Denver Center
10:34AM 36.6378 -108.0711 208° Southwest 309 356 40,000  Level Denver Center
10:35AM 36.5525 -108.1281 208° Southwest 310 357 40,000  Level Denver Center
10:36AM 36.4792 -108.1761 208° Southwest 310 357 40,000  Level Denver Center
10:37AM 36.3939 -108.2331 208° Southwest 310 357 40,000  Level Denver Center
10:38AM 36.3200 -108.2811 208° Southwest 312 359 40,000  Level Denver Center
10:39AM 36.2350 -108.3367 208° Southwest 309 356 40,000  Level Denver Center
10:40AM 36.1608 -108.3850 208° Southwest 311 358 40,000  Level Denver Center
10:41AM 36.0867 -108.4333 208° Southwest 312 359 40,000  Level Denver Center
10:42AM 36.0000 -108.4892 208° Southwest 312 359 40,000  Level Denver Center
10:43AM 35.9256 -108.5383 208° Southwest 314 361 40,000  Level Denver Center
10:44AM 35.8386 -108.5939 207° Southwest 313 360 40,000  Level Denver Center
10:45AM 35.7647 -108.6428 208° Southwest 312 359 40,000  Level Denver Center
10:46AM 35.6778 -108.6992 208° Southwest 314 361 40,000 -290 Level Denver Center
10:47AM 35.6039 -108.7475 208° Southwest 312 359 39,400 -774 Descending Denver Center
10:48AM 35.5286 -108.7956 207° Southwest 316 364 38,400 -986 Descending Denver Center
10:50AM 35.4167 -108.8669 207° Southwest 316 364 37,000 -1,068 Descending Albuquerque Center
10:51AM 35.3281 -108.9233 207° Southwest 320 368 35,800 -1,016 Descending Albuquerque Center
10:52AM 35.2614 -108.9897 219° Southwest 322 371 34,900 -1,016 Descending Albuquerque Center
10:53AM 35.1839 -109.0719 221° Southwest 329 379 33,700 -1,065 Descending Albuquerque Center
10:54AM 35.1167 -109.1428 221° Southwest 332 382 32,700 -1,016 Descending Albuquerque Center
10:55AM 35.0339 -109.2294 221° Southwest 345 397 31,600 -1,016 Descending Albuquerque Center
10:56AM 34.9614 -109.3058 221° Southwest 354 407 30,600 -774 Descending Albuquerque Center
10:57AM 34.8892 -109.3808 220° Southwest 356 410 30,000 -290 Descending Albuquerque Center
10:58AM 34.8050 -109.4689 221° Southwest 357 411 30,000  Level Albuquerque Center
10:59AM 34.7356 -109.5439 222° Southwest 352 405 30,000  Level Albuquerque Center
11:00AM 34.6528 -109.6283 220° Southwest 348 400 30,000  Level Albuquerque Center
11:01AM 34.5942 -109.7133 230° Southwest 344 396 30,000  Level Albuquerque Center
11:02AM 34.5400 -109.8258 240° Southwest 344 396 30,000 -823 Level Albuquerque Center
11:03AM 34.4917 -109.9194 238° Southwest 343 395 28,300 -1,790 Descending Albuquerque Center
11:04AM 34.4289 -110.0278 235° Southwest 349 402 26,300 -1,452 Descending Albuquerque Center
11:05AM 34.3694 -110.1103 229° Southwest 343 395 25,300 -1,065 Descending Albuquerque Center
11:06AM 34.3033 -110.2067 230° Southwest 336 387 24,100 -1,016 Descending Albuquerque Center
11:07AM 34.2553 -110.2742 229° Southwest 328 377 23,200 -1,065 Descending Albuquerque Center
11:08AM 34.1867 -110.3742 230° Southwest 324 373 21,900 -1,161 Descending Albuquerque Center
11:09AM 34.1281 -110.4575 230° Southwest 325 374 20,800 -1,008 Descending Albuquerque Center
11:10AM 34.0739 -110.5350 230° Southwest 313 360 19,800 -960 Descending Albuquerque Center
11:11AM 34.0197 -110.6114 229° Southwest 304 350 18,800 -1,113 Descending Albuquerque Center
11:12AM 33.9617 -110.6947 230° Southwest 301 346 17,500 -1,113 Descending Albuquerque Center
11:14AM 33.9086 -110.7706 230° Southwest 298 343 16,500 -968 Descending Albuquerque Center
11:15AM 33.8556 -110.8467 230° Southwest 297 342 15,500 -1,016 Descending Albuquerque Center
11:16AM 33.8022 -110.9200 229° Southwest 293 337 14,400 -1,113 Descending Albuquerque Center
11:17AM 33.7417 -111.0081 230° Southwest 288 331 13,200 -1,113 Descending Albuquerque Center
11:18AM 33.6900 -111.0786 229° Southwest 283 326 12,100 -1,065 Descending Albuquerque Center
11:19AM 33.6403 -111.1494 230° Southwest 278 320 11,000 -823 Descending Albuquerque Center
11:20AM 33.5953 -111.2236 234° Southwest 276 318 10,400 -968 Descending Albuquerque Center
11:21AM 33.5514 -111.2953 234° Southwest 269 310 9,000 -1,065 Descending Albuquerque Center
11:22AM 33.5139 -111.3611 236° Southwest 243 280 8,200 -919 Descending Albuquerque Center
11:23AM 33.4564 -111.4139 217° Southwest 222 255 7,100 -968 Descending Albuquerque Center
11:24AM 33.4211 -111.4742 235° Southwest 230 265 6,200 -1,016 Descending Albuquerque Center
11:25AM 33.3989 -111.5417 248° West 221 254 5,000 -1,258 Descending Albuquerque Center
11:26AM 33.3897 -111.6019 260° West 189 217 3,600 -1,065 Descending Albuquerque Center
11:27AM 33.3797 -111.6636 259° West 187 215 2,800 -677 Descending Albuquerque Center
11:28AM 33.3503 -111.6986 225° Southwest 152 175 2,200 -629 Descending Albuquerque Center
11:29AM 33.3206 -111.6767 148° Southeast 117 135 1,500 -677 Descending Albuquerque Center
11:31AM 33.3078 -111.6555 270° West  Level Estimated